sensor_id;sensor_type;location;lat;lon;timestamp;P1;durP1;ratioP1;P2;durP2;ratioP2
15192;SDS011;7697;51.630;7.484;2023-04-24T00:03:49;2.75;;;1.80;;
15192;SDS011;7697;51.630;7.484;2023-04-24T00:08:53;2.65;;;1.40;;
15192;SDS011;7697;51.630;7.484;2023-04-24T00:13:55;2.55;;;1.83;;
15192;SDS011;7697;51.630;7.484;2023-04-24T00:18:57;4.18;;;2.28;;
15192;SDS011;7697;51.630;7.484;2023-04-24T00:24:02;3.45;;;1.95;;
15192;SDS011;7697;51.630;7.484;2023-04-24T00:29:04;1.40;;;0.90;;
15192;SDS011;7697;51.630;7.484;2023-04-24T00:34:05;2.67;;;1.40;;
15192;SDS011;7697;51.630;7.484;2023-04-24T00:39:09;1.60;;;1.30;;
15192;SDS011;7697;51.630;7.484;2023-04-24T00:44:10;2.42;;;1.40;;
15192;SDS011;7697;51.630;7.484;2023-04-24T00:49:13;4.65;;;1.23;;
15192;SDS011;7697;51.630;7.484;2023-04-24T00:54:16;2.88;;;1.65;;
15192;SDS011;7697;51.630;7.484;2023-04-24T00:59:18;2.33;;;1.48;;
15192;SDS011;7697;51.630;7.484;2023-04-24T01:04:20;4.10;;;2.38;;
15192;SDS011;7697;51.630;7.484;2023-04-24T01:09:24;3.55;;;2.50;;
15192;SDS011;7697;51.630;7.484;2023-04-24T01:14:26;2.90;;;1.70;;
15192;SDS011;7697;51.630;7.484;2023-04-24T01:19:30;1.65;;;1.45;;
15192;SDS011;7697;51.630;7.484;2023-04-24T01:24:33;3.97;;;1.45;;
15192;SDS011;7697;51.630;7.484;2023-04-24T01:29:35;2.25;;;1.73;;
15192;SDS011;7697;51.630;7.484;2023-04-24T01:34:37;3.03;;;1.88;;
15192;SDS011;7697;51.630;7.484;2023-04-24T01:39:41;3.72;;;2.08;;
15192;SDS011;7697;51.630;7.484;2023-04-24T01:44:43;4.43;;;2.30;;
15192;SDS011;7697;51.630;7.484;2023-04-24T01:49:45;4.45;;;1.85;;
15192;SDS011;7697;51.630;7.484;2023-04-24T01:54:48;1.80;;;1.50;;
15192;SDS011;7697;51.630;7.484;2023-04-24T01:59:50;3.50;;;2.08;;
15192;SDS011;7697;51.630;7.484;2023-04-24T02:04:52;4.18;;;2.20;;
15192;SDS011;7697;51.630;7.484;2023-04-24T02:09:55;4.15;;;2.42;;
15192;SDS011;7697;51.630;7.484;2023-04-24T02:14:57;2.20;;;2.00;;
15192;SDS011;7697;51.630;7.484;2023-04-24T02:19:59;2.58;;;1.70;;
15192;SDS011;7697;51.630;7.484;2023-04-24T02:25:02;2.53;;;2.08;;
15192;SDS011;7697;51.630;7.484;2023-04-24T02:30:05;2.05;;;1.60;;
15192;SDS011;7697;51.630;7.484;2023-04-24T02:35:08;1.85;;;1.70;;
15192;SDS011;7697;51.630;7.484;2023-04-24T02:40:11;2.20;;;2.00;;
15192;SDS011;7697;51.630;7.484;2023-04-24T02:45:13;2.65;;;2.10;;
15192;SDS011;7697;51.630;7.484;2023-04-24T02:50:16;4.63;;;2.83;;
15192;SDS011;7697;51.630;7.484;2023-04-24T02:55:19;3.08;;;2.75;;
15192;SDS011;7697;51.630;7.484;2023-04-24T03:00:21;3.67;;;3.22;;
15192;SDS011;7697;51.630;7.484;2023-04-24T03:05:23;5.00;;;4.50;;
15192;SDS011;7697;51.630;7.484;2023-04-24T03:10:26;6.30;;;4.30;;
15192;SDS011;7697;51.630;7.484;2023-04-24T03:15:28;7.57;;;5.80;;
15192;SDS011;7697;51.630;7.484;2023-04-24T03:20:30;8.27;;;6.28;;
15192;SDS011;7697;51.630;7.484;2023-04-24T03:25:33;8.38;;;6.07;;
15192;SDS011;7697;51.630;7.484;2023-04-24T03:30:34;10.15;;;6.28;;
15192;SDS011;7697;51.630;7.484;2023-04-24T03:35:36;10.55;;;6.82;;
15192;SDS011;7697;51.630;7.484;2023-04-24T03:40:39;7.82;;;6.82;;
15192;SDS011;7697;51.630;7.484;2023-04-24T03:45:41;8.80;;;7.07;;
15192;SDS011;7697;51.630;7.484;2023-04-24T03:50:43;8.30;;;6.90;;
15192;SDS011;7697;51.630;7.484;2023-04-24T03:55:46;11.50;;;7.68;;
15192;SDS011;7697;51.630;7.484;2023-04-24T04:00:48;8.85;;;7.03;;
15192;SDS011;7697;51.630;7.484;2023-04-24T04:05:49;9.98;;;7.57;;
15192;SDS011;7697;51.630;7.484;2023-04-24T04:10:53;11.65;;;8.15;;
15192;SDS011;7697;51.630;7.484;2023-04-24T04:15:54;12.90;;;10.10;;
15192;SDS011;7697;51.630;7.484;2023-04-24T04:20:56;10.35;;;8.25;;
15192;SDS011;7697;51.630;7.484;2023-04-24T04:26:00;10.52;;;8.02;;
15192;SDS011;7697;51.630;7.484;2023-04-24T04:31:02;11.18;;;8.07;;
15192;SDS011;7697;51.630;7.484;2023-04-24T04:36:04;12.00;;;9.68;;
15192;SDS011;7697;51.630;7.484;2023-04-24T04:41:07;11.45;;;9.43;;
15192;SDS011;7697;51.630;7.484;2023-04-24T04:46:09;12.18;;;9.32;;
15192;SDS011;7697;51.630;7.484;2023-04-24T04:51:11;13.80;;;9.05;;
15192;SDS011;7697;51.630;7.484;2023-04-24T04:56:14;12.65;;;10.13;;
15192;SDS011;7697;51.630;7.484;2023-04-24T05:01:16;11.82;;;9.23;;
15192;SDS011;7697;51.630;7.484;2023-04-24T05:06:17;11.73;;;8.68;;
15192;SDS011;7697;51.630;7.484;2023-04-24T05:11:21;10.57;;;9.00;;
15192;SDS011;7697;51.630;7.484;2023-04-24T05:16:23;11.35;;;8.50;;
15192;SDS011;7697;51.630;7.484;2023-04-24T05:21:25;14.57;;;9.38;;
15192;SDS011;7697;51.630;7.484;2023-04-24T05:26:28;12.23;;;9.50;;
15192;SDS011;7697;51.630;7.484;2023-04-24T05:31:30;12.30;;;8.90;;
15192;SDS011;7697;51.630;7.484;2023-04-24T05:36:32;11.43;;;8.00;;
15192;SDS011;7697;51.630;7.484;2023-04-24T05:41:35;10.55;;;7.40;;
15192;SDS011;7697;51.630;7.484;2023-04-24T05:46:37;12.93;;;9.05;;
15192;SDS011;7697;51.630;7.484;2023-04-24T05:51:39;13.77;;;8.18;;
15192;SDS011;7697;51.630;7.484;2023-04-24T05:56:42;12.15;;;8.15;;
15192;SDS011;7697;51.630;7.484;2023-04-24T06:01:44;8.50;;;6.10;;
15192;SDS011;7697;51.630;7.484;2023-04-24T06:06:46;8.98;;;6.93;;
15192;SDS011;7697;51.630;7.484;2023-04-24T06:11:52;7.25;;;6.40;;
15192;SDS011;7697;51.630;7.484;2023-04-24T06:16:54;8.25;;;6.20;;
15192;SDS011;7697;51.630;7.484;2023-04-24T06:21:59;7.97;;;6.28;;
15192;SDS011;7697;51.630;7.484;2023-04-24T06:27:02;8.90;;;7.00;;
15192;SDS011;7697;51.630;7.484;2023-04-24T06:32:04;8.88;;;7.30;;
15192;SDS011;7697;51.630;7.484;2023-04-24T06:37:06;10.90;;;7.85;;
15192;SDS011;7697;51.630;7.484;2023-04-24T06:42:09;7.70;;;6.25;;
15192;SDS011;7697;51.630;7.484;2023-04-24T06:47:11;8.95;;;7.13;;
15192;SDS011;7697;51.630;7.484;2023-04-24T06:52:13;7.95;;;6.38;;
15192;SDS011;7697;51.630;7.484;2023-04-24T06:57:17;7.68;;;5.93;;
15192;SDS011;7697;51.630;7.484;2023-04-24T07:02:18;6.07;;;5.45;;
15192;SDS011;7697;51.630;7.484;2023-04-24T07:07:20;8.30;;;5.43;;
15192;SDS011;7697;51.630;7.484;2023-04-24T07:12:25;6.72;;;5.43;;
15192;SDS011;7697;51.630;7.484;2023-04-24T07:17:27;8.38;;;6.18;;
15192;SDS011;7697;51.630;7.484;2023-04-24T07:22:28;5.88;;;4.72;;
15192;SDS011;7697;51.630;7.484;2023-04-24T07:27:32;5.90;;;4.97;;
15192;SDS011;7697;51.630;7.484;2023-04-24T07:32:36;5.05;;;4.55;;
15192;SDS011;7697;51.630;7.484;2023-04-24T07:37:37;5.55;;;4.40;;
15192;SDS011;7697;51.630;7.484;2023-04-24T07:42:40;6.07;;;4.93;;
15192;SDS011;7697;51.630;7.484;2023-04-24T07:47:43;8.05;;;5.00;;
15192;SDS011;7697;51.630;7.484;2023-04-24T07:52:46;5.80;;;4.20;;
15192;SDS011;7697;51.630;7.484;2023-04-24T07:57:49;5.10;;;3.22;;
15192;SDS011;7697;51.630;7.484;2023-04-24T08:02:51;3.40;;;2.42;;
15192;SDS011;7697;51.630;7.484;2023-04-24T08:07:53;3.13;;;2.70;;
15192;SDS011;7697;51.630;7.484;2023-04-24T08:12:56;5.57;;;2.40;;
15192;SDS011;7697;51.630;7.484;2023-04-24T08:17:57;3.55;;;2.83;;
15192;SDS011;7697;51.630;7.484;2023-04-24T08:22:59;2.95;;;2.50;;
15192;SDS011;7697;51.630;7.484;2023-04-24T08:28:03;3.78;;;2.92;;
15192;SDS011;7697;51.630;7.484;2023-04-24T08:33:07;1.95;;;1.60;;
15192;SDS011;7697;51.630;7.484;2023-04-24T08:38:08;2.53;;;1.65;;
15192;SDS011;7697;51.630;7.484;2023-04-24T08:43:12;1.20;;;1.10;;
15192;SDS011;7697;51.630;7.484;2023-04-24T08:48:14;3.05;;;0.77;;
15192;SDS011;7697;51.630;7.484;2023-04-24T08:53:17;0.95;;;0.90;;
15192;SDS011;7697;51.630;7.484;2023-04-24T08:58:21;1.10;;;1.00;;
15192;SDS011;7697;51.630;7.484;2023-04-24T09:03:23;0.95;;;0.85;;
15192;SDS011;7697;51.630;7.484;2023-04-24T09:08:27;1.52;;;1.02;;
15192;SDS011;7697;51.630;7.484;2023-04-24T09:13:31;1.45;;;1.23;;
15192;SDS011;7697;51.630;7.484;2023-04-24T09:18:33;1.20;;;1.05;;
15192;SDS011;7697;51.630;7.484;2023-04-24T09:23:35;1.25;;;1.15;;
15192;SDS011;7697;51.630;7.484;2023-04-24T09:28:39;1.42;;;1.00;;
15192;SDS011;7697;51.630;7.484;2023-04-24T09:33:43;1.85;;;1.20;;
15192;SDS011;7697;51.630;7.484;2023-04-24T09:38:57;1.40;;;1.30;;
15192;SDS011;7697;51.630;7.484;2023-04-24T09:44:11;1.52;;;1.42;;
15192;SDS011;7697;51.630;7.484;2023-04-24T09:49:14;1.60;;;1.40;;
15192;SDS011;7697;51.630;7.484;2023-04-24T09:54:17;2.03;;;1.55;;
15192;SDS011;7697;51.630;7.484;2023-04-24T09:59:22;2.38;;;1.70;;
15192;SDS011;7697;51.630;7.484;2023-04-24T10:04:24;2.15;;;1.80;;
15192;SDS011;7697;51.630;7.484;2023-04-24T10:09:27;2.33;;;2.10;;
15192;SDS011;7697;51.630;7.484;2023-04-24T10:14:30;2.75;;;2.20;;
15192;SDS011;7697;51.630;7.484;2023-04-24T10:19:32;2.70;;;2.20;;
15192;SDS011;7697;51.630;7.484;2023-04-24T10:24:35;4.35;;;3.40;;
15192;SDS011;7697;51.630;7.484;2023-04-24T10:29:39;3.53;;;2.95;;
15192;SDS011;7697;51.630;7.484;2023-04-24T10:34:43;4.28;;;3.05;;
15192;SDS011;7697;51.630;7.484;2023-04-24T10:39:47;2.78;;;2.53;;
15192;SDS011;7697;51.630;7.484;2023-04-24T10:44:52;5.28;;;3.08;;
15192;SDS011;7697;51.630;7.484;2023-04-24T10:49:55;3.58;;;2.67;;
15192;SDS011;7697;51.630;7.484;2023-04-24T10:55:01;3.55;;;2.67;;
15192;SDS011;7697;51.630;7.484;2023-04-24T11:00:13;2.80;;;2.60;;
15192;SDS011;7697;51.630;7.484;2023-04-24T11:05:16;3.22;;;2.72;;
15192;SDS011;7697;51.630;7.484;2023-04-24T11:10:24;3.00;;;2.78;;
15192;SDS011;7697;51.630;7.484;2023-04-24T11:15:28;4.45;;;3.35;;
15192;SDS011;7697;51.630;7.484;2023-04-24T11:20:30;5.68;;;3.70;;
15192;SDS011;7697;51.630;7.484;2023-04-24T11:25:32;4.32;;;3.30;;
15192;SDS011;7697;51.630;7.484;2023-04-24T11:30:35;5.18;;;3.47;;
15192;SDS011;7697;51.630;7.484;2023-04-24T11:35:41;8.05;;;3.60;;
15192;SDS011;7697;51.630;7.484;2023-04-24T11:40:43;7.82;;;4.13;;
15192;SDS011;7697;51.630;7.484;2023-04-24T11:45:49;5.28;;;3.20;;
15192;SDS011;7697;51.630;7.484;2023-04-24T11:50:51;6.93;;;3.20;;
15192;SDS011;7697;51.630;7.484;2023-04-24T11:55:53;5.97;;;3.42;;
15192;SDS011;7697;51.630;7.484;2023-04-24T12:00:59;4.18;;;3.15;;
15192;SDS011;7697;51.630;7.484;2023-04-24T12:06:04;9.48;;;5.35;;
15192;SDS011;7697;51.630;7.484;2023-04-24T12:11:07;6.00;;;3.67;;
15192;SDS011;7697;51.630;7.484;2023-04-24T12:16:10;9.27;;;4.10;;
15192;SDS011;7697;51.630;7.484;2023-04-24T12:21:16;8.40;;;4.00;;
15192;SDS011;7697;51.630;7.484;2023-04-24T12:26:19;8.07;;;4.25;;
15192;SDS011;7697;51.630;7.484;2023-04-24T12:31:24;5.70;;;4.15;;
15192;SDS011;7697;51.630;7.484;2023-04-24T12:36:26;5.85;;;4.35;;
15192;SDS011;7697;51.630;7.484;2023-04-24T12:41:30;10.13;;;4.15;;
15192;SDS011;7697;51.630;7.484;2023-04-24T12:46:33;5.28;;;3.70;;
15192;SDS011;7697;51.630;7.484;2023-04-24T12:51:35;8.85;;;3.67;;
15192;SDS011;7697;51.630;7.484;2023-04-24T12:56:37;6.22;;;3.40;;
15192;SDS011;7697;51.630;7.484;2023-04-24T13:01:41;5.50;;;3.05;;
15192;SDS011;7697;51.630;7.484;2023-04-24T13:06:43;5.75;;;2.75;;
15192;SDS011;7697;51.630;7.484;2023-04-24T13:11:44;5.07;;;2.70;;
15192;SDS011;7697;51.630;7.484;2023-04-24T13:16:47;5.68;;;2.60;;
15192;SDS011;7697;51.630;7.484;2023-04-24T13:21:49;5.50;;;3.17;;
15192;SDS011;7697;51.630;7.484;2023-04-24T13:26:51;4.80;;;2.55;;
15192;SDS011;7697;51.630;7.484;2023-04-24T13:31:56;3.88;;;2.50;;
15192;SDS011;7697;51.630;7.484;2023-04-24T13:36:58;4.90;;;2.55;;
15192;SDS011;7697;51.630;7.484;2023-04-24T13:42:00;4.65;;;2.75;;
15192;SDS011;7697;51.630;7.484;2023-04-24T13:47:03;3.47;;;2.42;;
15192;SDS011;7697;51.630;7.484;2023-04-24T13:52:05;5.45;;;2.22;;
15192;SDS011;7697;51.630;7.484;2023-04-24T13:57:07;3.45;;;1.80;;
15192;SDS011;7697;51.630;7.484;2023-04-24T14:02:11;3.80;;;1.70;;
15192;SDS011;7697;51.630;7.484;2023-04-24T14:07:12;3.28;;;2.20;;
15192;SDS011;7697;51.630;7.484;2023-04-24T14:12:15;2.10;;;1.90;;
15192;SDS011;7697;51.630;7.484;2023-04-24T14:17:21;3.33;;;1.83;;
15192;SDS011;7697;51.630;7.484;2023-04-24T14:22:22;3.00;;;2.00;;
15192;SDS011;7697;51.630;7.484;2023-04-24T14:27:24;3.95;;;2.60;;
15192;SDS011;7697;51.630;7.484;2023-04-24T14:32:28;3.60;;;2.40;;
15192;SDS011;7697;51.630;7.484;2023-04-24T14:37:30;2.80;;;2.00;;
15192;SDS011;7697;51.630;7.484;2023-04-24T14:42:31;2.92;;;1.90;;
15192;SDS011;7697;51.630;7.484;2023-04-24T14:47:36;3.10;;;2.20;;
15192;SDS011;7697;51.630;7.484;2023-04-24T14:52:38;3.05;;;2.17;;
15192;SDS011;7697;51.630;7.484;2023-04-24T14:57:40;4.55;;;2.55;;
15192;SDS011;7697;51.630;7.484;2023-04-24T15:02:43;2.55;;;2.30;;
15192;SDS011;7697;51.630;7.484;2023-04-24T15:07:45;3.47;;;2.35;;
15192;SDS011;7697;51.630;7.484;2023-04-24T15:12:47;2.63;;;2.13;;
15192;SDS011;7697;51.630;7.484;2023-04-24T15:17:50;3.58;;;3.00;;
15192;SDS011;7697;51.630;7.484;2023-04-24T15:22:52;5.68;;;2.85;;
15192;SDS011;7697;51.630;7.484;2023-04-24T15:27:54;4.55;;;2.65;;
15192;SDS011;7697;51.630;7.484;2023-04-24T15:32:57;3.70;;;2.58;;
15192;SDS011;7697;51.630;7.484;2023-04-24T15:37:59;3.60;;;2.67;;
15192;SDS011;7697;51.630;7.484;2023-04-24T15:43:01;3.00;;;2.63;;
15192;SDS011;7697;51.630;7.484;2023-04-24T15:48:04;2.60;;;2.10;;
15192;SDS011;7697;51.630;7.484;2023-04-24T15:53:06;4.97;;;3.00;;
15192;SDS011;7697;51.630;7.484;2023-04-24T15:58:08;4.25;;;3.45;;
15192;SDS011;7697;51.630;7.484;2023-04-24T16:03:12;3.67;;;2.30;;
15192;SDS011;7697;51.630;7.484;2023-04-24T16:08:14;3.70;;;2.08;;
15192;SDS011;7697;51.630;7.484;2023-04-24T16:13:16;2.72;;;1.85;;
15192;SDS011;7697;51.630;7.484;2023-04-24T16:18:20;3.90;;;3.38;;
15192;SDS011;7697;51.630;7.484;2023-04-24T16:23:22;2.90;;;2.03;;
15192;SDS011;7697;51.630;7.484;2023-04-24T16:28:23;3.10;;;2.25;;
15192;SDS011;7697;51.630;7.484;2023-04-24T16:33:28;3.40;;;1.90;;
15192;SDS011;7697;51.630;7.484;2023-04-24T16:38:30;2.45;;;2.05;;
15192;SDS011;7697;51.630;7.484;2023-04-24T16:43:32;3.38;;;2.50;;
15192;SDS011;7697;51.630;7.484;2023-04-24T16:48:36;3.92;;;1.90;;
15192;SDS011;7697;51.630;7.484;2023-04-24T16:53:37;3.30;;;1.90;;
15192;SDS011;7697;51.630;7.484;2023-04-24T16:58:39;3.47;;;1.83;;
15192;SDS011;7697;51.630;7.484;2023-04-24T17:03:43;6.50;;;2.50;;
15192;SDS011;7697;51.630;7.484;2023-04-24T17:08:45;4.18;;;2.33;;
15192;SDS011;7697;51.630;7.484;2023-04-24T17:13:47;4.35;;;2.10;;
15192;SDS011;7697;51.630;7.484;2023-04-24T17:18:50;3.35;;;2.10;;
15192;SDS011;7697;51.630;7.484;2023-04-24T17:23:52;5.38;;;2.70;;
15192;SDS011;7697;51.630;7.484;2023-04-24T17:28:54;4.10;;;2.50;;
15192;SDS011;7697;51.630;7.484;2023-04-24T17:33:57;7.07;;;3.22;;
15192;SDS011;7697;51.630;7.484;2023-04-24T17:38:59;7.75;;;3.10;;
15192;SDS011;7697;51.630;7.484;2023-04-24T17:44:01;3.97;;;2.38;;
15192;SDS011;7697;51.630;7.484;2023-04-24T17:49:04;4.35;;;2.00;;
15192;SDS011;7697;51.630;7.484;2023-04-24T17:54:06;3.92;;;2.60;;
15192;SDS011;7697;51.630;7.484;2023-04-24T17:59:07;3.33;;;2.20;;
15192;SDS011;7697;51.630;7.484;2023-04-24T18:04:10;6.72;;;3.80;;
15192;SDS011;7697;51.630;7.484;2023-04-24T18:09:12;5.95;;;3.28;;
15192;SDS011;7697;51.630;7.484;2023-04-24T18:14:14;4.47;;;2.78;;
15192;SDS011;7697;51.630;7.484;2023-04-24T18:19:18;5.68;;;2.80;;
15192;SDS011;7697;51.630;7.484;2023-04-24T18:24:20;7.07;;;5.43;;
15192;SDS011;7697;51.630;7.484;2023-04-24T18:29:22;8.18;;;3.70;;
15192;SDS011;7697;51.630;7.484;2023-04-24T18:34:26;4.05;;;3.35;;
15192;SDS011;7697;51.630;7.484;2023-04-24T18:39:30;6.40;;;3.15;;
15192;SDS011;7697;51.630;7.484;2023-04-24T18:44:31;4.55;;;3.83;;
15192;SDS011;7697;51.630;7.484;2023-04-24T18:49:35;4.97;;;3.65;;
15192;SDS011;7697;51.630;7.484;2023-04-24T18:54:38;5.50;;;3.58;;
15192;SDS011;7697;51.630;7.484;2023-04-24T18:59:40;6.80;;;4.28;;
15192;SDS011;7697;51.630;7.484;2023-04-24T19:04:43;4.55;;;3.13;;
15192;SDS011;7697;51.630;7.484;2023-04-24T19:09:45;7.10;;;3.40;;
15192;SDS011;7697;51.630;7.484;2023-04-24T19:14:47;5.38;;;3.42;;
15192;SDS011;7697;51.630;7.484;2023-04-24T19:19:52;6.35;;;3.65;;
15192;SDS011;7697;51.630;7.484;2023-04-24T19:24:53;8.40;;;4.50;;
15192;SDS011;7697;51.630;7.484;2023-04-24T19:29:57;6.88;;;3.70;;
15192;SDS011;7697;51.630;7.484;2023-04-24T19:35:00;5.63;;;3.20;;
15192;SDS011;7697;51.630;7.484;2023-04-24T19:40:03;6.35;;;3.90;;
15192;SDS011;7697;51.630;7.484;2023-04-24T19:45:06;7.32;;;3.72;;
15192;SDS011;7697;51.630;7.484;2023-04-24T19:50:09;8.07;;;3.83;;
15192;SDS011;7697;51.630;7.484;2023-04-24T19:55:11;10.15;;;4.10;;
15192;SDS011;7697;51.630;7.484;2023-04-24T20:00:13;5.55;;;3.35;;
15192;SDS011;7697;51.630;7.484;2023-04-24T20:05:17;5.50;;;3.88;;
15192;SDS011;7697;51.630;7.484;2023-04-24T20:10:19;8.30;;;3.92;;
15192;SDS011;7697;51.630;7.484;2023-04-24T20:15:20;7.72;;;4.63;;
15192;SDS011;7697;51.630;7.484;2023-04-24T20:20:24;8.43;;;5.05;;
15192;SDS011;7697;51.630;7.484;2023-04-24T20:25:26;4.95;;;4.10;;
15192;SDS011;7697;51.630;7.484;2023-04-24T20:30:27;8.77;;;4.50;;
15192;SDS011;7697;51.630;7.484;2023-04-24T20:35:31;7.00;;;3.35;;
15192;SDS011;7697;51.630;7.484;2023-04-24T20:40:34;4.78;;;3.22;;
15192;SDS011;7697;51.630;7.484;2023-04-24T20:45:37;7.60;;;3.72;;
15192;SDS011;7697;51.630;7.484;2023-04-24T20:50:40;7.47;;;3.65;;
15192;SDS011;7697;51.630;7.484;2023-04-24T20:55:42;6.53;;;3.70;;
15192;SDS011;7697;51.630;7.484;2023-04-24T21:00:44;8.82;;;4.40;;
15192;SDS011;7697;51.630;7.484;2023-04-24T21:05:47;4.88;;;3.30;;
15192;SDS011;7697;51.630;7.484;2023-04-24T21:10:49;5.38;;;3.13;;
15192;SDS011;7697;51.630;7.484;2023-04-24T21:15:51;9.02;;;3.80;;
15192;SDS011;7697;51.630;7.484;2023-04-24T21:20:54;9.00;;;3.47;;
15192;SDS011;7697;51.630;7.484;2023-04-24T21:25:57;5.33;;;3.27;;
15192;SDS011;7697;51.630;7.484;2023-04-24T21:30:59;5.47;;;3.35;;
15192;SDS011;7697;51.630;7.484;2023-04-24T21:36:02;7.20;;;3.40;;
15192;SDS011;7697;51.630;7.484;2023-04-24T21:41:05;5.90;;;3.40;;
15192;SDS011;7697;51.630;7.484;2023-04-24T21:46:06;6.60;;;3.40;;
15192;SDS011;7697;51.630;7.484;2023-04-24T21:51:10;6.27;;;3.60;;
15192;SDS011;7697;51.630;7.484;2023-04-24T21:56:12;4.90;;;2.83;;
15192;SDS011;7697;51.630;7.484;2023-04-24T22:01:14;6.40;;;3.27;;
15192;SDS011;7697;51.630;7.484;2023-04-24T22:06:17;5.67;;;3.37;;
15192;SDS011;7697;51.630;7.484;2023-04-24T22:11:18;7.30;;;3.30;;
15192;SDS011;7697;51.630;7.484;2023-04-24T22:16:20;9.67;;;3.90;;
15192;SDS011;7697;51.630;7.484;2023-04-24T22:21:25;4.37;;;3.30;;
15192;SDS011;7697;51.630;7.484;2023-04-24T22:26:27;6.57;;;3.40;;
15192;SDS011;7697;51.630;7.484;2023-04-24T22:31:29;6.88;;;3.05;;
15192;SDS011;7697;51.630;7.484;2023-04-24T22:36:32;7.17;;;3.57;;
15192;SDS011;7697;51.630;7.484;2023-04-24T22:41:34;7.33;;;3.37;;
15192;SDS011;7697;51.630;7.484;2023-04-24T22:46:36;7.90;;;3.53;;
15192;SDS011;7697;51.630;7.484;2023-04-24T22:51:39;6.85;;;3.38;;
15192;SDS011;7697;51.630;7.484;2023-04-24T22:56:41;8.47;;;3.90;;
15192;SDS011;7697;51.630;7.484;2023-04-24T23:01:43;8.67;;;4.07;;
15192;SDS011;7697;51.630;7.484;2023-04-24T23:06:46;7.97;;;3.83;;
15192;SDS011;7697;51.630;7.484;2023-04-24T23:11:48;6.93;;;4.33;;
15192;SDS011;7697;51.630;7.484;2023-04-24T23:16:51;9.03;;;4.47;;
15192;SDS011;7697;51.630;7.484;2023-04-24T23:21:54;9.73;;;4.73;;
15192;SDS011;7697;51.630;7.484;2023-04-24T23:26:56;10.47;;;4.67;;
15192;SDS011;7697;51.630;7.484;2023-04-24T23:31:58;11.23;;;4.93;;
15192;SDS011;7697;51.630;7.484;2023-04-24T23:37:02;9.87;;;4.43;;
15192;SDS011;7697;51.630;7.484;2023-04-24T23:42:04;9.33;;;4.90;;
15192;SDS011;7697;51.630;7.484;2023-04-24T23:47:06;7.13;;;4.30;;
15192;SDS011;7697;51.630;7.484;2023-04-24T23:52:09;8.80;;;4.60;;
15192;SDS011;7697;51.630;7.484;2023-04-24T23:57:11;9.57;;;4.87;;
